sensor_id;sensor_type;location;lat;lon;timestamp;P1;durP1;ratioP1;P2;durP2;ratioP2
18316;SDS011;9284;52.298;21.164;2022-11-15T04:10:07;53.78;;;22.42;;
18316;SDS011;9284;52.298;21.164;2022-11-15T04:12:55;49.75;;;21.40;;
18316;SDS011;9284;52.298;21.164;2022-11-15T04:15:43;52.50;;;22.33;;
18316;SDS011;9284;52.298;21.164;2022-11-15T04:18:30;48.70;;;22.27;;
18316;SDS011;9284;52.298;21.164;2022-11-15T04:21:16;49.35;;;20.98;;
18316;SDS011;9284;52.298;21.164;2022-11-15T04:24:20;51.30;;;19.77;;
18316;SDS011;9284;52.298;21.164;2022-11-15T04:27:08;47.35;;;20.52;;
18316;SDS011;9284;52.298;21.164;2022-11-15T04:29:57;54.47;;;21.75;;
18316;SDS011;9284;52.298;21.164;2022-11-15T04:32:44;56.72;;;22.38;;
18316;SDS011;9284;52.298;21.164;2022-11-15T04:35:30;56.70;;;22.13;;
18316;SDS011;9284;52.298;21.164;2022-11-15T04:38:17;55.35;;;22.05;;
18316;SDS011;9284;52.298;21.164;2022-11-15T04:41:04;50.42;;;22.08;;
18316;SDS011;9284;52.298;21.164;2022-11-15T04:43:52;53.92;;;21.90;;
18316;SDS011;9284;52.298;21.164;2022-11-15T04:46:39;56.63;;;22.58;;
18316;SDS011;9284;52.298;21.164;2022-11-15T04:49:25;60.53;;;23.83;;
18316;SDS011;9284;52.298;21.164;2022-11-15T04:52:12;54.53;;;23.20;;
18316;SDS011;9284;52.298;21.164;2022-11-15T04:54:58;55.22;;;23.58;;
18316;SDS011;9284;52.298;21.164;2022-11-15T04:57:58;54.40;;;23.60;;
18316;SDS011;9284;52.298;21.164;2022-11-15T05:00:47;58.38;;;23.50;;
18316;SDS011;9284;52.298;21.164;2022-11-15T05:03:33;52.53;;;23.20;;
18316;SDS011;9284;52.298;21.164;2022-11-15T05:06:37;59.25;;;23.85;;
18316;SDS011;9284;52.298;21.164;2022-11-15T05:09:24;53.92;;;23.63;;
18316;SDS011;9284;52.298;21.164;2022-11-15T05:12:11;63.30;;;24.25;;
18316;SDS011;9284;52.298;21.164;2022-11-15T05:14:57;54.00;;;22.15;;
18316;SDS011;9284;52.298;21.164;2022-11-15T05:17:45;61.05;;;24.05;;
18316;SDS011;9284;52.298;21.164;2022-11-15T05:20:32;61.38;;;23.23;;
18316;SDS011;9284;52.298;21.164;2022-11-15T05:23:18;54.97;;;22.25;;
18316;SDS011;9284;52.298;21.164;2022-11-15T05:26:05;52.20;;;22.90;;
18316;SDS011;9284;52.298;21.164;2022-11-15T05:28:54;52.17;;;22.23;;
18316;SDS011;9284;52.298;21.164;2022-11-15T05:31:41;56.55;;;23.33;;
18316;SDS011;9284;52.298;21.164;2022-11-15T05:34:30;52.40;;;22.55;;
18316;SDS011;9284;52.298;21.164;2022-11-15T05:37:17;57.45;;;25.02;;
18316;SDS011;9284;52.298;21.164;2022-11-15T05:40:05;54.67;;;24.00;;
18316;SDS011;9284;52.298;21.164;2022-11-15T05:42:53;57.38;;;23.58;;
18316;SDS011;9284;52.298;21.164;2022-11-15T05:45:39;58.38;;;23.70;;
18316;SDS011;9284;52.298;21.164;2022-11-15T05:48:26;58.47;;;23.27;;
18316;SDS011;9284;52.298;21.164;2022-11-15T05:51:14;53.80;;;22.63;;
18316;SDS011;9284;52.298;21.164;2022-11-15T05:54:03;53.45;;;20.80;;
18316;SDS011;9284;52.298;21.164;2022-11-15T05:56:49;54.35;;;22.00;;
18316;SDS011;9284;52.298;21.164;2022-11-15T05:59:36;54.55;;;22.33;;
18316;SDS011;9284;52.298;21.164;2022-11-15T06:02:25;56.85;;;23.23;;
18316;SDS011;9284;52.298;21.164;2022-11-15T06:05:12;59.92;;;23.38;;
18316;SDS011;9284;52.298;21.164;2022-11-15T06:08:01;54.33;;;22.05;;
18316;SDS011;9284;52.298;21.164;2022-11-15T06:10:47;56.65;;;22.65;;
18316;SDS011;9284;52.298;21.164;2022-11-15T06:13:34;55.22;;;21.95;;
18316;SDS011;9284;52.298;21.164;2022-11-15T06:16:21;65.07;;;23.83;;
18316;SDS011;9284;52.298;21.164;2022-11-15T06:19:07;56.05;;;22.85;;
18316;SDS011;9284;52.298;21.164;2022-11-15T06:21:54;54.65;;;23.13;;
18316;SDS011;9284;52.298;21.164;2022-11-15T06:24:42;61.08;;;24.05;;
18316;SDS011;9284;52.298;21.164;2022-11-15T06:27:28;59.03;;;23.48;;
18316;SDS011;9284;52.298;21.164;2022-11-15T06:30:15;61.88;;;22.52;;
18316;SDS011;9284;52.298;21.164;2022-11-15T06:33:02;62.85;;;22.50;;
18316;SDS011;9284;52.298;21.164;2022-11-15T06:35:50;63.88;;;23.58;;
18316;SDS011;9284;52.298;21.164;2022-11-15T06:38:36;56.30;;;21.25;;
18316;SDS011;9284;52.298;21.164;2022-11-15T06:41:24;60.70;;;23.95;;
18316;SDS011;9284;52.298;21.164;2022-11-15T06:44:11;67.47;;;23.50;;
18316;SDS011;9284;52.298;21.164;2022-11-15T06:46:57;70.55;;;24.10;;
18316;SDS011;9284;52.298;21.164;2022-11-15T06:49:44;62.75;;;23.00;;
18316;SDS011;9284;52.298;21.164;2022-11-15T06:52:31;59.63;;;22.17;;
18316;SDS011;9284;52.298;21.164;2022-11-15T06:55:18;68.40;;;22.83;;
18316;SDS011;9284;52.298;21.164;2022-11-15T06:58:06;58.88;;;22.40;;
18316;SDS011;9284;52.298;21.164;2022-11-15T07:00:53;60.42;;;21.92;;
18316;SDS011;9284;52.298;21.164;2022-11-15T07:03:40;61.17;;;23.75;;
18316;SDS011;9284;52.298;21.164;2022-11-15T07:06:28;55.92;;;22.30;;
18316;SDS011;9284;52.298;21.164;2022-11-15T07:09:14;59.80;;;23.17;;
18316;SDS011;9284;52.298;21.164;2022-11-15T07:12:01;57.63;;;22.23;;
18316;SDS011;9284;52.298;21.164;2022-11-15T07:14:53;64.78;;;23.45;;
18316;SDS011;9284;52.298;21.164;2022-11-15T07:17:40;57.67;;;21.70;;
18316;SDS011;9284;52.298;21.164;2022-11-15T07:20:26;60.60;;;22.77;;
18316;SDS011;9284;52.298;21.164;2022-11-15T07:23:13;65.20;;;22.40;;
18316;SDS011;9284;52.298;21.164;2022-11-15T07:25:59;57.67;;;21.95;;
18316;SDS011;9284;52.298;21.164;2022-11-15T07:28:46;57.53;;;20.42;;
18316;SDS011;9284;52.298;21.164;2022-11-15T07:31:34;49.88;;;19.13;;
18316;SDS011;9284;52.298;21.164;2022-11-15T07:34:21;58.47;;;20.65;;
18316;SDS011;9284;52.298;21.164;2022-11-15T07:37:08;52.55;;;20.20;;
18316;SDS011;9284;52.298;21.164;2022-11-15T07:39:55;59.58;;;20.92;;
18316;SDS011;9284;52.298;21.164;2022-11-15T07:42:41;56.88;;;19.75;;
18316;SDS011;9284;52.298;21.164;2022-11-15T07:45:41;59.63;;;20.67;;
18316;SDS011;9284;52.298;21.164;2022-11-15T07:48:30;60.35;;;20.88;;
18316;SDS011;9284;52.298;21.164;2022-11-15T07:51:28;63.00;;;22.05;;
18316;SDS011;9284;52.298;21.164;2022-11-15T07:54:15;64.88;;;23.25;;
18316;SDS011;9284;52.298;21.164;2022-11-15T07:57:01;68.18;;;22.85;;
18316;SDS011;9284;52.298;21.164;2022-11-15T07:59:51;58.88;;;21.73;;
18316;SDS011;9284;52.298;21.164;2022-11-15T08:02:38;65.32;;;22.30;;
18316;SDS011;9284;52.298;21.164;2022-11-15T08:05:27;68.35;;;22.30;;
18316;SDS011;9284;52.298;21.164;2022-11-15T08:08:14;69.28;;;22.42;;
18316;SDS011;9284;52.298;21.164;2022-11-15T08:11:00;69.70;;;23.52;;
18316;SDS011;9284;52.298;21.164;2022-11-15T08:13:48;70.35;;;22.02;;
18316;SDS011;9284;52.298;21.164;2022-11-15T08:16:34;63.75;;;21.88;;
18316;SDS011;9284;52.298;21.164;2022-11-15T08:19:21;57.50;;;21.15;;
18316;SDS011;9284;52.298;21.164;2022-11-15T08:22:10;65.65;;;21.38;;
18316;SDS011;9284;52.298;21.164;2022-11-15T08:24:56;51.95;;;19.83;;
18316;SDS011;9284;52.298;21.164;2022-11-15T08:27:43;55.95;;;21.23;;
18316;SDS011;9284;52.298;21.164;2022-11-15T08:30:30;58.85;;;20.67;;
18316;SDS011;9284;52.298;21.164;2022-11-15T08:33:20;58.65;;;21.52;;
18316;SDS011;9284;52.298;21.164;2022-11-15T08:36:10;56.42;;;20.95;;
18316;SDS011;9284;52.298;21.164;2022-11-15T08:39:00;56.03;;;20.02;;
18316;SDS011;9284;52.298;21.164;2022-11-15T08:41:47;58.55;;;21.17;;
18316;SDS011;9284;52.298;21.164;2022-11-15T08:44:34;53.47;;;20.05;;
18316;SDS011;9284;52.298;21.164;2022-11-15T08:47:20;55.97;;;20.55;;
18316;SDS011;9284;52.298;21.164;2022-11-15T08:50:08;56.67;;;21.58;;
18316;SDS011;9284;52.298;21.164;2022-11-15T08:52:55;54.55;;;20.27;;
18316;SDS011;9284;52.298;21.164;2022-11-15T08:55:43;59.58;;;19.35;;
18316;SDS011;9284;52.298;21.164;2022-11-15T08:58:29;48.45;;;19.80;;
18316;SDS011;9284;52.298;21.164;2022-11-15T09:01:17;47.83;;;18.73;;
18316;SDS011;9284;52.298;21.164;2022-11-15T09:04:04;47.90;;;20.25;;
18316;SDS011;9284;52.298;21.164;2022-11-15T09:06:51;51.38;;;19.67;;
18316;SDS011;9284;52.298;21.164;2022-11-15T09:09:38;46.70;;;19.08;;
18316;SDS011;9284;52.298;21.164;2022-11-15T09:12:27;50.97;;;18.98;;
18316;SDS011;9284;52.298;21.164;2022-11-15T09:15:13;48.60;;;19.67;;
18316;SDS011;9284;52.298;21.164;2022-11-15T09:18:01;41.83;;;18.33;;
18316;SDS011;9284;52.298;21.164;2022-11-15T09:20:47;41.70;;;18.75;;
18316;SDS011;9284;52.298;21.164;2022-11-15T09:23:34;42.83;;;18.05;;
18316;SDS011;9284;52.298;21.164;2022-11-15T09:26:21;42.80;;;18.85;;
18316;SDS011;9284;52.298;21.164;2022-11-15T09:29:09;46.72;;;19.15;;
18316;SDS011;9284;52.298;21.164;2022-11-15T09:31:55;42.92;;;17.40;;
18316;SDS011;9284;52.298;21.164;2022-11-15T09:34:42;49.78;;;19.83;;
18316;SDS011;9284;52.298;21.164;2022-11-15T09:37:28;46.13;;;19.45;;
18316;SDS011;9284;52.298;21.164;2022-11-15T09:40:17;47.65;;;20.90;;
18316;SDS011;9284;52.298;21.164;2022-11-15T09:43:18;48.65;;;19.77;;
18316;SDS011;9284;52.298;21.164;2022-11-15T09:46:21;47.75;;;19.67;;
18316;SDS011;9284;52.298;21.164;2022-11-15T09:49:23;45.72;;;18.83;;
18316;SDS011;9284;52.298;21.164;2022-11-15T09:52:04;43.42;;;17.02;;
18316;SDS011;9284;52.298;21.164;2022-11-15T09:54:35;37.45;;;16.17;;
18316;SDS011;9284;52.298;21.164;2022-11-15T09:57:21;41.35;;;17.30;;
18316;SDS011;9284;52.298;21.164;2022-11-15T09:59:59;36.33;;;16.15;;
18316;SDS011;9284;52.298;21.164;2022-11-15T10:02:58;36.22;;;16.15;;
18316;SDS011;9284;52.298;21.164;2022-11-15T10:05:39;38.25;;;16.70;;
18316;SDS011;9284;52.298;21.164;2022-11-15T10:11:00;38.35;;;16.45;;
18316;SDS011;9284;52.298;21.164;2022-11-15T10:13:51;38.55;;;17.30;;
18316;SDS011;9284;52.298;21.164;2022-11-15T10:16:34;39.05;;;18.10;;
18316;SDS011;9284;52.298;21.164;2022-11-15T10:19:21;39.28;;;17.20;;
18316;SDS011;9284;52.298;21.164;2022-11-15T10:21:56;47.22;;;19.73;;
18316;SDS011;9284;52.298;21.164;2022-11-15T10:24:33;43.08;;;17.73;;
18316;SDS011;9284;52.298;21.164;2022-11-15T10:27:07;43.42;;;18.52;;
18316;SDS011;9284;52.298;21.164;2022-11-15T10:29:42;47.40;;;19.90;;
18316;SDS011;9284;52.298;21.164;2022-11-15T10:32:11;48.42;;;20.05;;
18316;SDS011;9284;52.298;21.164;2022-11-15T10:34:41;46.28;;;19.90;;
18316;SDS011;9284;52.298;21.164;2022-11-15T10:37:09;44.28;;;19.15;;
18316;SDS011;9284;52.298;21.164;2022-11-15T10:39:38;44.40;;;20.00;;
18316;SDS011;9284;52.298;21.164;2022-11-15T10:42:16;48.28;;;18.70;;
18316;SDS011;9284;52.298;21.164;2022-11-15T10:44:45;46.83;;;19.35;;
18316;SDS011;9284;52.298;21.164;2022-11-15T10:47:20;48.05;;;19.73;;
18316;SDS011;9284;52.298;21.164;2022-11-15T10:49:56;43.63;;;17.25;;
18316;SDS011;9284;52.298;21.164;2022-11-15T10:52:30;43.67;;;18.80;;
18316;SDS011;9284;52.298;21.164;2022-11-15T10:55:01;41.35;;;18.77;;
18316;SDS011;9284;52.298;21.164;2022-11-15T10:57:33;42.65;;;17.95;;
18316;SDS011;9284;52.298;21.164;2022-11-15T11:00:05;43.35;;;19.42;;
18316;SDS011;9284;52.298;21.164;2022-11-15T11:02:35;41.58;;;18.25;;
18316;SDS011;9284;52.298;21.164;2022-11-15T11:05:28;39.58;;;17.25;;
18316;SDS011;9284;52.298;21.164;2022-11-15T11:08:18;43.05;;;17.88;;
18316;SDS011;9284;52.298;21.164;2022-11-15T11:10:53;37.10;;;18.00;;
18316;SDS011;9284;52.298;21.164;2022-11-15T11:13:29;53.55;;;21.35;;
18316;SDS011;9284;52.298;21.164;2022-11-15T11:16:11;49.53;;;23.52;;
18316;SDS011;9284;52.298;21.164;2022-11-15T11:18:51;42.08;;;18.88;;
18316;SDS011;9284;52.298;21.164;2022-11-15T11:21:29;39.80;;;19.48;;
18316;SDS011;9284;52.298;21.164;2022-11-15T11:24:08;39.97;;;19.23;;
18316;SDS011;9284;52.298;21.164;2022-11-15T11:26:46;44.25;;;19.27;;
18316;SDS011;9284;52.298;21.164;2022-11-15T11:29:27;40.67;;;18.30;;
18316;SDS011;9284;52.298;21.164;2022-11-15T11:32:08;44.83;;;19.95;;
18316;SDS011;9284;52.298;21.164;2022-11-15T11:34:52;47.50;;;20.90;;
18316;SDS011;9284;52.298;21.164;2022-11-15T11:37:30;48.05;;;19.02;;
18316;SDS011;9284;52.298;21.164;2022-11-15T11:40:10;45.78;;;19.83;;
18316;SDS011;9284;52.298;21.164;2022-11-15T11:42:49;50.00;;;20.25;;
18316;SDS011;9284;52.298;21.164;2022-11-15T11:45:28;42.00;;;19.10;;
18316;SDS011;9284;52.298;21.164;2022-11-15T11:48:20;45.95;;;20.00;;
18316;SDS011;9284;52.298;21.164;2022-11-15T11:51:02;47.08;;;20.20;;
18316;SDS011;9284;52.298;21.164;2022-11-15T11:53:37;48.40;;;20.48;;
18316;SDS011;9284;52.298;21.164;2022-11-15T11:56:11;41.80;;;19.75;;
18316;SDS011;9284;52.298;21.164;2022-11-15T11:58:45;46.08;;;19.15;;
18316;SDS011;9284;52.298;21.164;2022-11-15T12:01:16;43.72;;;18.60;;
18316;SDS011;9284;52.298;21.164;2022-11-15T12:03:50;43.30;;;19.58;;
18316;SDS011;9284;52.298;21.164;2022-11-15T12:06:24;46.85;;;20.45;;
18316;SDS011;9284;52.298;21.164;2022-11-15T12:09:00;43.85;;;20.25;;
18316;SDS011;9284;52.298;21.164;2022-11-15T12:11:34;46.47;;;20.80;;
18316;SDS011;9284;52.298;21.164;2022-11-15T12:14:11;47.55;;;21.42;;
18316;SDS011;9284;52.298;21.164;2022-11-15T12:16:48;47.10;;;22.08;;
18316;SDS011;9284;52.298;21.164;2022-11-15T12:19:16;45.55;;;20.83;;
18316;SDS011;9284;52.298;21.164;2022-11-15T12:21:46;44.45;;;20.85;;
18316;SDS011;9284;52.298;21.164;2022-11-15T12:24:20;47.30;;;20.90;;
18316;SDS011;9284;52.298;21.164;2022-11-15T12:26:54;49.25;;;21.30;;
18316;SDS011;9284;52.298;21.164;2022-11-15T12:29:28;44.42;;;20.80;;
18316;SDS011;9284;52.298;21.164;2022-11-15T12:32:00;45.75;;;21.33;;
18316;SDS011;9284;52.298;21.164;2022-11-15T12:34:35;45.20;;;21.50;;
18316;SDS011;9284;52.298;21.164;2022-11-15T12:37:32;47.88;;;21.92;;
18316;SDS011;9284;52.298;21.164;2022-11-15T12:40:19;41.78;;;21.20;;
18316;SDS011;9284;52.298;21.164;2022-11-15T12:46:01;53.55;;;23.25;;
18316;SDS011;9284;52.298;21.164;2022-11-15T12:57:37;51.28;;;23.40;;
18316;SDS011;9284;52.298;21.164;2022-11-15T13:03:26;53.72;;;23.83;;
18316;SDS011;9284;52.298;21.164;2022-11-15T13:08:59;52.97;;;22.92;;
18316;SDS011;9284;52.298;21.164;2022-11-15T13:14:43;50.83;;;23.05;;
18316;SDS011;9284;52.298;21.164;2022-11-15T13:17:22;49.22;;;21.42;;
18316;SDS011;9284;52.298;21.164;2022-11-15T13:19:53;53.60;;;23.13;;
18316;SDS011;9284;52.298;21.164;2022-11-15T13:22:26;54.38;;;23.27;;
18316;SDS011;9284;52.298;21.164;2022-11-15T13:25:16;52.92;;;23.83;;
18316;SDS011;9284;52.298;21.164;2022-11-15T13:27:48;52.28;;;22.63;;
18316;SDS011;9284;52.298;21.164;2022-11-15T13:30:20;52.70;;;23.15;;
18316;SDS011;9284;52.298;21.164;2022-11-15T13:32:50;61.22;;;23.33;;
18316;SDS011;9284;52.298;21.164;2022-11-15T13:35:20;58.55;;;23.88;;
18316;SDS011;9284;52.298;21.164;2022-11-15T13:37:50;59.45;;;24.23;;
18316;SDS011;9284;52.298;21.164;2022-11-15T13:40:24;53.45;;;23.35;;
18316;SDS011;9284;52.298;21.164;2022-11-15T13:42:57;52.72;;;23.48;;
18316;SDS011;9284;52.298;21.164;2022-11-15T13:45:26;59.88;;;25.13;;
18316;SDS011;9284;52.298;21.164;2022-11-15T13:47:55;56.53;;;25.17;;
18316;SDS011;9284;52.298;21.164;2022-11-15T13:50:25;58.40;;;25.15;;
18316;SDS011;9284;52.298;21.164;2022-11-15T13:52:57;64.72;;;25.48;;
18316;SDS011;9284;52.298;21.164;2022-11-15T13:55:28;58.00;;;25.13;;
18316;SDS011;9284;52.298;21.164;2022-11-15T13:57:59;66.75;;;25.13;;
18316;SDS011;9284;52.298;21.164;2022-11-15T14:00:35;61.63;;;25.40;;
18316;SDS011;9284;52.298;21.164;2022-11-15T14:03:08;58.30;;;23.88;;
18316;SDS011;9284;52.298;21.164;2022-11-15T14:05:45;64.35;;;26.23;;
18316;SDS011;9284;52.298;21.164;2022-11-15T14:08:30;63.83;;;24.83;;
18316;SDS011;9284;52.298;21.164;2022-11-15T14:11:05;60.90;;;24.35;;
18316;SDS011;9284;52.298;21.164;2022-11-15T14:13:35;54.55;;;23.60;;
18316;SDS011;9284;52.298;21.164;2022-11-15T14:16:16;64.07;;;23.13;;
18316;SDS011;9284;52.298;21.164;2022-11-15T14:18:47;59.75;;;23.80;;
18316;SDS011;9284;52.298;21.164;2022-11-15T14:21:16;54.40;;;23.90;;
18316;SDS011;9284;52.298;21.164;2022-11-15T14:23:45;56.17;;;22.90;;
18316;SDS011;9284;52.298;21.164;2022-11-15T14:26:28;52.90;;;22.00;;
18316;SDS011;9284;52.298;21.164;2022-11-15T14:29:06;54.22;;;22.02;;
18316;SDS011;9284;52.298;21.164;2022-11-15T14:31:51;56.80;;;23.58;;
18316;SDS011;9284;52.298;21.164;2022-11-15T14:34:19;51.72;;;22.90;;
18316;SDS011;9284;52.298;21.164;2022-11-15T14:36:48;54.45;;;22.65;;
18316;SDS011;9284;52.298;21.164;2022-11-15T14:39:16;53.90;;;22.40;;
18316;SDS011;9284;52.298;21.164;2022-11-15T14:41:44;58.08;;;23.30;;
18316;SDS011;9284;52.298;21.164;2022-11-15T14:44:12;55.60;;;23.00;;
18316;SDS011;9284;52.298;21.164;2022-11-15T14:46:44;57.45;;;22.75;;
18316;SDS011;9284;52.298;21.164;2022-11-15T14:49:15;60.75;;;24.20;;
18316;SDS011;9284;52.298;21.164;2022-11-15T14:51:43;57.03;;;23.15;;
18316;SDS011;9284;52.298;21.164;2022-11-15T14:54:11;56.95;;;24.05;;
18316;SDS011;9284;52.298;21.164;2022-11-15T14:56:40;57.83;;;24.30;;
18316;SDS011;9284;52.298;21.164;2022-11-15T14:59:09;64.28;;;24.35;;
18316;SDS011;9284;52.298;21.164;2022-11-15T15:01:37;62.03;;;24.58;;
18316;SDS011;9284;52.298;21.164;2022-11-15T15:04:05;58.10;;;23.52;;
18316;SDS011;9284;52.298;21.164;2022-11-15T15:06:35;56.05;;;22.58;;
18316;SDS011;9284;52.298;21.164;2022-11-15T15:09:03;56.67;;;22.10;;
18316;SDS011;9284;52.298;21.164;2022-11-15T15:11:31;55.20;;;22.23;;
18316;SDS011;9284;52.298;21.164;2022-11-15T15:14:00;54.15;;;22.15;;
18316;SDS011;9284;52.298;21.164;2022-11-15T15:16:28;51.78;;;21.48;;
18316;SDS011;9284;52.298;21.164;2022-11-15T15:18:56;53.47;;;21.50;;
18316;SDS011;9284;52.298;21.164;2022-11-15T15:21:25;56.58;;;21.23;;
18316;SDS011;9284;52.298;21.164;2022-11-15T15:24:03;51.38;;;21.40;;
18316;SDS011;9284;52.298;21.164;2022-11-15T15:26:32;51.75;;;20.08;;
18316;SDS011;9284;52.298;21.164;2022-11-15T15:29:02;50.70;;;19.98;;
18316;SDS011;9284;52.298;21.164;2022-11-15T15:31:31;50.22;;;21.15;;
18316;SDS011;9284;52.298;21.164;2022-11-15T15:33:59;55.28;;;21.90;;
18316;SDS011;9284;52.298;21.164;2022-11-15T15:36:27;57.10;;;22.35;;
18316;SDS011;9284;52.298;21.164;2022-11-15T15:38:55;63.95;;;23.08;;
18316;SDS011;9284;52.298;21.164;2022-11-15T15:41:25;57.42;;;21.95;;
18316;SDS011;9284;52.298;21.164;2022-11-15T15:43:53;59.65;;;23.38;;
18316;SDS011;9284;52.298;21.164;2022-11-15T15:46:21;61.60;;;24.75;;
18316;SDS011;9284;52.298;21.164;2022-11-15T15:48:49;62.90;;;25.10;;
18316;SDS011;9284;52.298;21.164;2022-11-15T15:51:18;63.47;;;24.88;;
18316;SDS011;9284;52.298;21.164;2022-11-15T15:53:46;63.55;;;24.52;;
18316;SDS011;9284;52.298;21.164;2022-11-15T15:56:15;58.90;;;23.75;;
18316;SDS011;9284;52.298;21.164;2022-11-15T15:58:44;59.97;;;24.80;;
18316;SDS011;9284;52.298;21.164;2022-11-15T16:01:12;70.03;;;26.88;;
18316;SDS011;9284;52.298;21.164;2022-11-15T16:03:41;67.75;;;24.77;;
18316;SDS011;9284;52.298;21.164;2022-11-15T16:09:04;59.33;;;25.13;;
18316;SDS011;9284;52.298;21.164;2022-11-15T16:11:43;73.00;;;26.98;;
18316;SDS011;9284;52.298;21.164;2022-11-15T16:14:14;64.63;;;25.48;;
18316;SDS011;9284;52.298;21.164;2022-11-15T16:16:42;65.68;;;25.73;;
18316;SDS011;9284;52.298;21.164;2022-11-15T16:19:10;76.03;;;25.98;;
18316;SDS011;9284;52.298;21.164;2022-11-15T16:21:39;66.47;;;26.50;;
18316;SDS011;9284;52.298;21.164;2022-11-15T16:24:07;67.47;;;25.80;;
18316;SDS011;9284;52.298;21.164;2022-11-15T16:26:35;66.32;;;23.30;;
18316;SDS011;9284;52.298;21.164;2022-11-15T16:29:04;67.43;;;23.00;;
18316;SDS011;9284;52.298;21.164;2022-11-15T16:31:34;58.88;;;22.00;;
18316;SDS011;9284;52.298;21.164;2022-11-15T16:34:02;60.22;;;22.10;;
18316;SDS011;9284;52.298;21.164;2022-11-15T16:36:32;61.00;;;23.15;;
18316;SDS011;9284;52.298;21.164;2022-11-15T16:39:01;67.00;;;22.70;;
18316;SDS011;9284;52.298;21.164;2022-11-15T16:41:30;58.50;;;22.42;;
18316;SDS011;9284;52.298;21.164;2022-11-15T16:43:58;55.15;;;22.65;;
18316;SDS011;9284;52.298;21.164;2022-11-15T16:46:27;55.05;;;21.58;;
18316;SDS011;9284;52.298;21.164;2022-11-15T16:48:57;62.60;;;23.35;;
18316;SDS011;9284;52.298;21.164;2022-11-15T16:51:25;61.72;;;21.85;;
18316;SDS011;9284;52.298;21.164;2022-11-15T16:53:53;53.33;;;21.50;;
18316;SDS011;9284;52.298;21.164;2022-11-15T16:56:22;56.08;;;22.17;;
18316;SDS011;9284;52.298;21.164;2022-11-15T16:58:53;57.70;;;21.95;;
18316;SDS011;9284;52.298;21.164;2022-11-15T17:01:24;66.22;;;21.52;;
18316;SDS011;9284;52.298;21.164;2022-11-15T17:03:54;57.03;;;21.25;;
18316;SDS011;9284;52.298;21.164;2022-11-15T17:06:24;57.17;;;21.25;;
18316;SDS011;9284;52.298;21.164;2022-11-15T17:08:54;57.47;;;20.50;;
18316;SDS011;9284;52.298;21.164;2022-11-15T17:11:22;49.38;;;19.02;;
18316;SDS011;9284;52.298;21.164;2022-11-15T17:13:50;42.78;;;18.17;;
18316;SDS011;9284;52.298;21.164;2022-11-15T17:16:23;46.28;;;18.10;;
18316;SDS011;9284;52.298;21.164;2022-11-15T17:18:52;51.72;;;22.52;;
18316;SDS011;9284;52.298;21.164;2022-11-15T17:21:21;54.28;;;20.23;;
18316;SDS011;9284;52.298;21.164;2022-11-15T17:23:50;48.85;;;18.63;;
18316;SDS011;9284;52.298;21.164;2022-11-15T17:26:19;52.60;;;20.05;;
18316;SDS011;9284;52.298;21.164;2022-11-15T17:28:57;51.05;;;18.52;;
18316;SDS011;9284;52.298;21.164;2022-11-15T17:31:26;50.65;;;19.08;;
18316;SDS011;9284;52.298;21.164;2022-11-15T17:33:56;63.25;;;20.50;;
18316;SDS011;9284;52.298;21.164;2022-11-15T17:36:24;59.80;;;21.27;;
18316;SDS011;9284;52.298;21.164;2022-11-15T17:38:54;46.92;;;17.77;;
18316;SDS011;9284;52.298;21.164;2022-11-15T17:41:25;47.67;;;17.08;;
18316;SDS011;9284;52.298;21.164;2022-11-15T17:43:54;51.17;;;18.15;;
18316;SDS011;9284;52.298;21.164;2022-11-15T17:46:24;40.40;;;16.80;;
18316;SDS011;9284;52.298;21.164;2022-11-15T17:48:53;47.13;;;18.23;;
18316;SDS011;9284;52.298;21.164;2022-11-15T17:51:22;59.10;;;20.20;;
18316;SDS011;9284;52.298;21.164;2022-11-15T17:53:51;48.63;;;19.65;;
18316;SDS011;9284;52.298;21.164;2022-11-15T17:56:21;52.08;;;19.50;;
18316;SDS011;9284;52.298;21.164;2022-11-15T17:59:02;61.85;;;23.05;;
18316;SDS011;9284;52.298;21.164;2022-11-15T18:01:37;54.55;;;19.88;;
18316;SDS011;9284;52.298;21.164;2022-11-15T18:04:06;58.10;;;19.08;;
18316;SDS011;9284;52.298;21.164;2022-11-15T18:06:36;70.45;;;26.30;;
18316;SDS011;9284;52.298;21.164;2022-11-15T18:09:04;60.65;;;21.90;;
18316;SDS011;9284;52.298;21.164;2022-11-15T18:11:35;62.85;;;24.00;;
18316;SDS011;9284;52.298;21.164;2022-11-15T18:14:06;52.80;;;18.98;;
18316;SDS011;9284;52.298;21.164;2022-11-15T18:16:37;57.47;;;21.88;;
18316;SDS011;9284;52.298;21.164;2022-11-15T18:19:05;57.17;;;24.65;;
18316;SDS011;9284;52.298;21.164;2022-11-15T18:21:39;57.15;;;22.20;;
18316;SDS011;9284;52.298;21.164;2022-11-15T18:24:23;48.78;;;19.48;;
18316;SDS011;9284;52.298;21.164;2022-11-15T18:26:54;49.28;;;18.88;;
18316;SDS011;9284;52.298;21.164;2022-11-15T18:29:23;51.25;;;19.15;;
18316;SDS011;9284;52.298;21.164;2022-11-15T18:31:52;48.63;;;17.63;;
18316;SDS011;9284;52.298;21.164;2022-11-15T18:34:21;48.58;;;17.70;;
18316;SDS011;9284;52.298;21.164;2022-11-15T18:36:51;45.30;;;17.00;;
18316;SDS011;9284;52.298;21.164;2022-11-15T18:39:19;45.47;;;17.25;;
18316;SDS011;9284;52.298;21.164;2022-11-15T18:41:48;46.03;;;16.63;;
18316;SDS011;9284;52.298;21.164;2022-11-15T18:44:18;46.35;;;16.95;;
18316;SDS011;9284;52.298;21.164;2022-11-15T18:46:46;41.22;;;15.98;;
18316;SDS011;9284;52.298;21.164;2022-11-15T18:49:16;40.65;;;16.35;;
18316;SDS011;9284;52.298;21.164;2022-11-15T18:51:45;45.78;;;16.92;;
18316;SDS011;9284;52.298;21.164;2022-11-15T18:54:15;42.30;;;16.60;;
18316;SDS011;9284;52.298;21.164;2022-11-15T18:56:44;34.47;;;15.50;;
18316;SDS011;9284;52.298;21.164;2022-11-15T18:59:12;43.05;;;17.77;;
18316;SDS011;9284;52.298;21.164;2022-11-15T19:01:43;44.95;;;15.93;;
18316;SDS011;9284;52.298;21.164;2022-11-15T19:04:18;44.90;;;15.98;;
18316;SDS011;9284;52.298;21.164;2022-11-15T19:06:48;40.92;;;16.75;;
18316;SDS011;9284;52.298;21.164;2022-11-15T19:09:19;45.75;;;18.63;;
18316;SDS011;9284;52.298;21.164;2022-11-15T19:11:47;36.95;;;16.83;;
18316;SDS011;9284;52.298;21.164;2022-11-15T19:14:17;40.65;;;16.42;;
18316;SDS011;9284;52.298;21.164;2022-11-15T19:16:51;42.13;;;15.77;;
18316;SDS011;9284;52.298;21.164;2022-11-15T19:19:20;42.13;;;17.88;;
18316;SDS011;9284;52.298;21.164;2022-11-15T19:21:50;36.67;;;15.88;;
18316;SDS011;9284;52.298;21.164;2022-11-15T19:24:18;41.33;;;15.82;;
18316;SDS011;9284;52.298;21.164;2022-11-15T19:26:46;37.47;;;15.90;;
18316;SDS011;9284;52.298;21.164;2022-11-15T19:29:15;34.95;;;14.70;;
18316;SDS011;9284;52.298;21.164;2022-11-15T19:31:43;39.45;;;15.32;;
18316;SDS011;9284;52.298;21.164;2022-11-15T19:34:15;36.67;;;15.23;;
18316;SDS011;9284;52.298;21.164;2022-11-15T19:36:44;32.05;;;14.00;;
18316;SDS011;9284;52.298;21.164;2022-11-15T19:39:12;44.17;;;20.02;;
18316;SDS011;9284;52.298;21.164;2022-11-15T19:41:43;42.22;;;20.55;;
18316;SDS011;9284;52.298;21.164;2022-11-15T19:44:12;31.38;;;15.27;;
18316;SDS011;9284;52.298;21.164;2022-11-15T19:46:40;31.98;;;15.55;;
18316;SDS011;9284;52.298;21.164;2022-11-15T19:49:09;40.90;;;17.77;;
18316;SDS011;9284;52.298;21.164;2022-11-15T19:51:39;39.15;;;16.60;;
18316;SDS011;9284;52.298;21.164;2022-11-15T19:54:10;35.97;;;15.68;;
18316;SDS011;9284;52.298;21.164;2022-11-15T19:56:39;33.85;;;14.70;;
18316;SDS011;9284;52.298;21.164;2022-11-15T19:59:07;34.75;;;15.20;;